Time;durP1;ratioP1;P1;durP2;ratioP2;P2;SDS_P1;SDS_P2;PMS_P1;PMS_P2;Temp;Humidity;BMP_temperature;BMP_pressure;BME280_temperature;BME280_humidity;BME280_pressure;Samples;Min_cycle;Max_cycle;Signal;HPM_P1;HPM_P2
2021/06/08 00:01:52;;;;;;;3.95;2.30;;;;;;;22.69;49.50;102240.88;5052591;28;20028;-56
2021/06/08 00:04:23;;;;;;;4.25;2.60;;;;;;;22.69;49.58;102248.88;5051306;28;20029;-57
2021/06/08 00:06:50;;;;;;;3.70;2.10;;;;;;;22.68;49.83;102247.16;5052346;28;20045;-58
2021/06/08 00:09:18;;;;;;;3.70;2.22;;;;;;;22.68;49.65;102246.31;5052699;28;20051;-58
2021/06/08 00:11:43;;;;;;;3.95;2.40;;;;;;;22.68;49.82;102247.16;5052031;28;20024;-58
2021/06/08 00:14:09;;;;;;;5.13;2.40;;;;;;;22.67;49.65;102247.28;5052509;28;20032;-57
2021/06/08 00:16:34;;;;;;;4.20;2.40;;;;;;;22.66;49.77;102253.59;5052197;28;20033;-57
2021/06/08 00:19:02;;;;;;;3.45;2.30;;;;;;;22.67;49.65;102247.28;5051516;28;20035;-58
2021/06/08 00:21:27;;;;;;;4.75;2.38;;;;;;;22.66;49.58;102250.94;5052682;28;20025;-57
2021/06/08 00:23:53;;;;;;;3.70;2.40;;;;;;;22.67;49.65;102247.28;5052528;28;20031;-57
2021/06/08 00:26:18;;;;;;;4.03;2.57;;;;;;;22.66;49.57;102249.09;5051507;28;20040;-58
2021/06/08 00:28:46;;;;;;;4.07;2.50;;;;;;;22.65;49.67;102255.38;5052302;28;20266;-58
2021/06/08 00:31:11;;;;;;;4.40;2.53;;;;;;;22.65;49.58;102252.72;5051970;28;20296;-57
2021/06/08 00:33:36;;;;;;;4.72;2.40;;;;;;;22.64;49.61;102251.88;5051868;28;20418;-58
2021/06/08 00:36:02;;;;;;;4.33;2.53;;;;;;;22.63;49.66;102252.84;5051588;28;20039;-57
2021/06/08 00:38:28;;;;;;;5.15;2.55;;;;;;;22.62;49.41;102255.63;5051497;28;20269;-56
2021/06/08 00:40:53;;;;;;;3.72;2.50;;;;;;;22.62;49.66;102258.28;5052368;28;20518;-57
2021/06/08 00:43:24;;;;;;;4.38;2.45;;;;;;;22.61;49.49;102249.47;5052091;28;20028;-57
2021/06/08 00:45:51;;;;;;;4.13;2.60;;;;;;;22.62;49.68;102252.97;5051571;28;20020;-57
2021/06/08 00:48:16;;;;;;;4.32;2.67;;;;;;;22.61;49.59;102254.78;5052216;28;20025;-57
2021/06/08 00:50:42;;;;;;;3.88;2.40;;;;;;;22.61;49.57;102261.91;5052429;28;20048;-57
2021/06/08 00:53:07;;;;;;;4.43;2.45;;;;;;;22.58;49.65;102252.34;5051138;28;20056;-58
2021/06/08 00:55:32;;;;;;;4.75;2.83;;;;;;;22.60;49.50;102249.59;5052133;28;20140;-57
2021/06/08 00:57:57;;;;;;;4.28;2.47;;;;;;;22.58;49.76;102248.88;5033102;28;20029;-57
2021/06/08 01:00:24;;;;;;;4.20;2.57;;;;;;;22.59;49.64;102256.72;5050868;28;20376;-58
2021/06/08 01:02:50;;;;;;;4.88;2.67;;;;;;;22.58;49.77;102252.34;5051986;28;20324;-58
2021/06/08 01:05:15;;;;;;;4.43;2.33;;;;;;;22.58;49.55;102255.00;5051550;28;20037;-57
2021/06/08 01:07:43;;;;;;;4.20;2.60;;;;;;;22.57;49.55;102252.47;5051381;28;20048;-57
2021/06/08 01:10:10;;;;;;;4.10;2.55;;;;;;;22.57;49.57;102256.00;5051547;28;20025;-57
2021/06/08 01:12:35;;;;;;;4.68;2.60;;;;;;;22.57;49.56;102257.78;5051807;28;20037;-57
2021/06/08 01:15:02;;;;;;;3.88;2.42;;;;;;;22.57;49.55;102255.13;5050911;28;20477;-57
2021/06/08 01:17:28;;;;;;;4.43;2.78;;;;;;;22.56;49.47;102258.78;5051974;28;20111;-57
2021/06/08 01:19:55;;;;;;;4.15;2.45;;;;;;;22.55;49.54;102255.25;5051869;28;20021;-57
2021/06/08 01:22:21;;;;;;;3.88;2.58;;;;;;;22.55;49.46;102255.25;5050206;28;20197;-57
2021/06/08 01:24:46;;;;;;;3.78;2.20;;;;;;;22.54;49.53;102261.56;5051746;28;20480;-56
2021/06/08 01:27:14;;;;;;;4.05;2.50;;;;;;;22.55;49.59;102257.91;5051365;28;20033;-57
2021/06/08 01:29:40;;;;;;;5.00;2.65;;;;;;;22.53;49.44;102259.84;5051177;28;20070;-57
2021/06/08 01:32:07;;;;;;;4.22;2.60;;;;;;;22.54;49.40;102255.38;5051527;28;20028;-57
2021/06/08 01:34:37;;;;;;;3.72;2.45;;;;;;;22.54;49.41;102252.72;5051217;28;20047;-57
2021/06/08 01:37:04;;;;;;;4.72;2.45;;;;;;;22.54;49.39;102255.38;5051102;28;20514;-57
2021/06/08 01:39:32;;;;;;;3.72;2.47;;;;;;;22.52;49.36;102250.19;5051528;28;20029;-57
2021/06/08 01:41:57;;;;;;;3.95;2.50;;;;;;;22.53;49.27;102256.34;5050759;28;20031;-58
2021/06/08 01:44:28;;;;;;;3.72;2.53;;;;;;;22.53;49.23;102256.34;5051499;28;20021;-57
2021/06/08 01:46:54;;;;;;;4.03;2.25;;;;;;;22.52;49.12;102260.81;5051721;28;20033;-57
2021/06/08 01:49:19;;;;;;;3.67;2.25;;;;;;;22.51;48.87;102259.13;5053845;28;20023;-58
2021/06/08 01:52:29;;;;;;;3.80;2.40;;;;;;;22.50;49.27;102254.78;5055469;28;20017;-57
2021/06/08 01:55:24;;;;;;;4.15;2.40;;;;;;;22.50;49.13;102254.78;5021526;28;20040;-57
2021/06/08 01:58:05;;;;;;;4.07;2.47;;;;;;;22.49;48.90;102250.41;5048884;28;20029;-58
2021/06/08 02:00:54;;;;;;;3.75;2.53;;;;;;;22.49;49.00;102253.06;5055272;28;20380;-58
2021/06/08 02:03:20;;;;;;;3.80;2.38;;;;;;;22.49;49.05;102254.91;5054317;28;20021;-57
2021/06/08 02:06:09;;;;;;;3.80;2.30;;;;;;;22.46;49.09;102251.53;5055077;28;20048;-57
2021/06/08 02:09:07;;;;;;;4.22;2.20;;;;;;;22.49;49.09;102254.91;5055075;28;20384;-58
2021/06/08 02:11:51;;;;;;;3.90;2.55;;;;;;;22.46;48.84;102262.16;5054299;28;20576;-58
2021/06/08 02:14:24;;;;;;;3.45;2.22;;;;;;;22.45;48.98;102254.28;5054775;28;20025;-56
2021/06/08 02:16:53;;;;;;;3.67;2.40;;;;;;;22.45;48.93;102267.56;5054136;28;20492;-57
2021/06/08 02:19:21;;;;;;;3.60;2.28;;;;;;;22.45;48.68;102256.94;5054579;28;20029;-57
2021/06/08 02:21:49;;;;;;;4.30;2.40;;;;;;;22.44;48.78;102256.09;5055136;28;20431;-56
2021/06/08 02:24:19;;;;;;;3.88;2.40;;;;;;;22.44;48.81;102257.91;5053700;28;20362;-57
2021/06/08 02:26:45;;;;;;;3.85;2.20;;;;;;;22.44;48.78;102258.75;5054795;28;20056;-57
2021/06/08 02:29:12;;;;;;;3.90;2.50;;;;;;;22.43;48.52;102253.53;5054363;28;20104;-58
2021/06/08 02:31:43;;;;;;;4.25;2.20;;;;;;;22.42;48.82;102258.03;5053772;28;20035;-57
2021/06/08 02:34:09;;;;;;;3.92;2.10;;;;;;;22.42;48.80;102257.19;5054312;28;20049;-57
2021/06/08 02:36:34;;;;;;;4.03;2.30;;;;;;;22.42;48.87;102259.84;5054625;28;20025;-57
2021/06/08 02:39:00;;;;;;;4.47;2.30;;;;;;;22.42;48.83;102266.00;5054049;28;20082;-57
2021/06/08 02:41:27;;;;;;;4.22;2.20;;;;;;;22.41;48.71;102263.44;5054389;28;20381;-58
2021/06/08 02:43:55;;;;;;;3.40;2.17;;;;;;;22.42;48.82;102267.81;5054463;28;20104;-58
2021/06/08 02:46:27;;;;;;;3.20;2.03;;;;;;;22.41;48.70;102268.75;5053678;28;20051;-57
2021/06/08 02:48:54;;;;;;;3.60;2.10;;;;;;;22.41;48.69;102268.75;5054421;28;20036;-57
2021/06/08 02:51:21;;;;;;;4.13;2.33;;;;;;;22.40;48.68;102270.59;5054253;28;20049;-57
2021/06/08 02:53:47;;;;;;;3.42;2.00;;;;;;;22.39;48.65;102260.91;5053543;28;20056;-57
2021/06/08 02:56:13;;;;;;;3.60;2.28;;;;;;;22.39;48.60;102270.69;5053858;28;20025;-57
2021/06/08 02:58:42;;;;;;;3.25;2.00;;;;;;;22.39;48.63;102266.22;5053813;28;20078;-57
2021/06/08 03:01:08;;;;;;;3.53;2.00;;;;;;;22.37;48.70;102268.16;5052946;28;20029;-57
2021/06/08 03:03:42;;;;;;;3.70;2.10;;;;;;;22.38;48.62;102271.66;5054310;28;20020;-57
2021/06/08 03:06:21;;;;;;;5.43;2.13;;;;;;;22.37;48.50;102267.31;5053036;28;20440;-57
2021/06/08 03:08:55;;;;;;;3.85;2.10;;;;;;;22.37;48.63;102272.63;5054058;28;20025;-58
2021/06/08 03:11:28;;;;;;;3.83;2.13;;;;;;;22.36;48.40;102271.78;5053775;28;20033;-58
2021/06/08 03:13:55;;;;;;;3.47;2.13;;;;;;;22.35;48.44;102266.56;5053458;28;20139;-57
2021/06/08 03:16:24;;;;;;;3.88;2.00;;;;;;;22.35;48.34;102267.44;5053552;28;20336;-57
2021/06/08 03:18:52;;;;;;;4.47;1.90;;;;;;;22.36;48.36;102268.28;5053895;28;20078;-56
2021/06/08 03:21:23;;;;;;;4.03;2.10;;;;;;;22.29;48.25;102262.56;5052719;28;20058;-57
2021/06/08 03:23:55;;;;;;;3.90;2.00;;;;;;;22.34;48.48;102271.06;5053653;28;20127;-57
2021/06/08 03:26:23;;;;;;;3.58;2.10;;;;;;;22.34;48.22;102270.22;5053242;28;20460;-57
2021/06/08 03:28:54;;;;;;;3.47;2.10;;;;;;;22.33;48.25;102273.81;5052961;28;20024;-58
2021/06/08 03:31:20;;;;;;;4.22;1.95;;;;;;;22.32;48.08;102278.31;5053380;28;20063;-58
2021/06/08 03:33:47;;;;;;;3.80;2.10;;;;;;;22.31;48.16;102276.59;5053516;28;20056;-58
2021/06/08 03:36:14;;;;;;;3.70;2.15;;;;;;;22.32;48.21;102275.66;5052437;28;20037;-58
2021/06/08 03:38:41;;;;;;;4.55;2.15;;;;;;;22.30;48.15;102269.59;5053331;28;20021;-57
2021/06/08 03:41:07;;;;;;;3.38;1.92;;;;;;;22.31;48.41;102279.25;5053186;28;20021;-58
2021/06/08 03:43:33;;;;;;;3.55;2.00;;;;;;;22.30;48.24;102280.22;5053116;28;20029;-57
2021/06/08 03:45:58;;;;;;;3.80;2.00;;;;;;;22.29;48.21;102286.47;5053120;28;20032;-57
2021/06/08 03:48:24;;;;;;;2.92;1.70;;;;;;;22.27;48.34;102283.94;5052216;28;20028;-58
2021/06/08 03:50:51;;;;;;;3.17;1.98;;;;;;;22.28;48.01;102282.94;5053196;28;20016;-57
2021/06/08 03:53:17;;;;;;;3.05;1.90;;;;;;;22.28;47.95;102279.47;5052735;28;20104;-57
2021/06/08 03:55:43;;;;;;;4.50;1.90;;;;;;;22.27;48.01;102278.63;5052247;28;20040;-57
2021/06/08 03:58:14;;;;;;;3.05;2.00;;;;;;;22.28;47.96;102285.59;5052787;28;20029;-58
2021/06/08 04:00:40;;;;;;;3.10;1.73;;;;;;;22.27;48.03;102278.63;5053299;28;20021;-58
2021/06/08 04:03:10;;;;;;;3.85;2.13;;;;;;;22.27;48.16;102283.94;5052105;28;20036;-58
2021/06/08 04:05:36;;;;;;;3.10;1.73;;;;;;;22.26;48.07;102281.41;5052797;28;20132;-58
2021/06/08 04:08:04;;;;;;;3.80;1.83;;;;;;;22.27;48.14;102280.41;5052884;28;20021;-57
2021/06/08 04:10:29;;;;;;;2.85;1.70;;;;;;;22.26;48.08;102284.88;5051641;28;20025;-57
2021/06/08 04:12:59;;;;;;;3.20;1.67;;;;;;;22.26;48.00;102287.53;5052876;28;20108;-57
2021/06/08 04:15:25;;;;;;;3.40;1.88;;;;;;;22.26;47.95;102284.06;5052217;28;20036;-57
2021/06/08 04:17:52;;;;;;;3.78;2.00;;;;;;;22.25;48.06;102277.88;5051986;28;20096;-57
2021/06/08 04:20:17;;;;;;;3.25;1.80;;;;;;;22.24;47.97;102272.72;5052210;28;20116;-57
2021/06/08 04:22:45;;;;;;;3.30;1.80;;;;;;;22.21;47.85;102268.47;5052836;28;20100;-58
2021/06/08 04:25:11;;;;;;;3.35;1.85;;;;;;;22.24;47.73;102276.19;5051481;28;20033;-57
2021/06/08 04:27:37;;;;;;;3.35;2.00;;;;;;;22.26;47.86;102284.06;5052527;28;20020;-58
2021/06/08 04:30:07;;;;;;;3.63;1.90;;;;;;;22.25;47.86;102283.19;5052203;28;20075;-57
2021/06/08 04:32:33;;;;;;;3.33;1.83;;;;;;;22.24;47.86;102285.97;5051433;28;20029;-57
2021/06/08 04:34:59;;;;;;;4.22;1.90;;;;;;;22.25;47.99;102287.66;5052525;28;20021;-57
2021/06/08 04:37:25;;;;;;;3.03;1.75;;;;;;;22.24;47.87;102275.38;5051328;28;20044;-57
2021/06/08 04:39:50;;;;;;;3.33;1.92;;;;;;;22.24;47.67;102284.16;5052272;28;20086;-57
2021/06/08 04:42:17;;;;;;;2.70;1.50;;;;;;;22.24;47.79;102285.97;5051818;28;20021;-58
2021/06/08 04:44:47;;;;;;;3.70;1.83;;;;;;;22.23;48.00;102277.16;5051436;28;20036;-58
2021/06/08 04:47:19;;;;;;;3.28;1.70;;;;;;;22.24;47.97;102286.81;5051785;28;20032;-57
2021/06/08 04:49:45;;;;;;;3.65;1.85;;;;;;;22.23;47.79;102282.47;5052097;28;20029;-58
2021/06/08 04:52:10;;;;;;;2.97;1.67;;;;;;;22.22;47.78;102280.78;5051160;28;20025;-56
2021/06/08 04:54:36;;;;;;;3.63;2.00;;;;;;;22.23;47.86;102281.63;5052174;28;20369;-57
2021/06/08 04:57:06;;;;;;;3.10;1.77;;;;;;;22.23;47.85;102281.63;5051669;28;20098;-58
2021/06/08 04:59:55;;;;;;;3.30;1.88;;;;;;;22.22;47.88;102275.47;5051114;28;20021;-58
2021/06/08 05:02:40;;;;;;;2.83;1.80;;;;;;;22.22;47.76;102285.22;5051810;28;20056;-56
2021/06/08 05:05:09;;;;;;;2.75;1.63;;;;;;;22.21;47.65;102281.75;5051452;28;20029;-58
2021/06/08 05:07:39;;;;;;;3.55;1.60;;;;;;;22.22;47.87;102280.78;5051144;28;20170;-58
2021/06/08 05:10:08;;;;;;;2.95;1.75;;;;;;;22.23;47.69;102274.50;5051379;28;20384;-57
2021/06/08 05:12:34;;;;;;;3.55;1.73;;;;;;;22.22;47.76;102278.13;5051300;28;20094;-57
2021/06/08 05:15:01;;;;;;;2.58;1.52;;;;;;;22.23;47.73;102278.97;5051547;28;20128;-57
2021/06/08 05:17:27;;;;;;;4.43;2.10;;;;;;;22.23;47.80;102281.63;5051571;28;20031;-57
2021/06/08 05:19:53;;;;;;;2.75;1.52;;;;;;;22.22;47.79;102279.91;5051302;28;20021;-58
2021/06/08 05:22:20;;;;;;;3.10;1.80;;;;;;;22.22;47.76;102282.56;5053199;28;20025;-59
2021/06/08 05:24:51;;;;;;;3.05;1.77;;;;;;;22.23;47.69;102287.78;5055529;28;20481;-57
2021/06/08 05:27:18;;;;;;;3.38;1.70;;;;;;;22.22;47.66;102282.56;5054844;28;20029;-57
2021/06/08 05:29:43;;;;;;;3.53;1.63;;;;;;;22.24;47.61;102285.97;5055686;28;20021;-56
2021/06/08 05:32:11;;;;;;;3.03;1.70;;;;;;;22.23;47.86;102282.47;5055133;28;20025;-58
2021/06/08 05:34:41;;;;;;;3.03;1.80;;;;;;;22.24;47.87;102283.31;5054855;28;20070;-58
2021/06/08 05:37:16;;;;;;;4.40;1.70;;;;;;;22.24;47.67;102284.16;5055135;28;20369;-57
2021/06/08 05:39:43;;;;;;;3.72;1.67;;;;;;;22.25;47.65;102285.00;5055521;28;20107;-58
2021/06/08 05:42:11;;;;;;;3.75;1.95;;;;;;;22.24;47.79;102292.13;5054416;28;20404;-57
2021/06/08 05:44:40;;;;;;;3.13;1.90;;;;;;;22.25;47.72;102295.63;5055297;28;20099;-58
2021/06/08 05:47:07;;;;;;;3.45;1.77;;;;;;;22.25;47.72;102292.97;5054912;28;20028;-57
2021/06/08 05:49:37;;;;;;;3.83;1.52;;;;;;;22.25;47.58;102299.13;5054466;28;20035;-58
2021/06/08 05:52:04;;;;;;;2.70;1.60;;;;;;;22.27;47.66;102299.88;5054801;28;20113;-58
2021/06/08 05:54:31;;;;;;;2.83;1.70;;;;;;;22.28;47.41;102306.00;5055288;28;20028;-57
2021/06/08 05:56:57;;;;;;;2.40;1.42;;;;;;;22.28;47.75;102306.00;5054212;28;20526;-57
2021/06/08 05:59:26;;;;;;;4.45;2.20;;;;;;;22.27;47.51;102302.53;5054729;28;20325;-58
2021/06/08 06:01:52;;;;;;;5.30;2.92;;;;;;;22.24;46.61;102302.75;5054449;28;20040;-56
2021/06/08 06:04:20;;;;;;;6.82;3.30;;;;;;;22.22;46.26;102298.50;5054715;28;20029;-58
2021/06/08 06:06:48;;;;;;;7.30;3.50;;;;;;;22.20;46.03;102305.75;5055051;28;20094;-58
2021/06/08 06:09:19;;;;;;;5.75;3.03;;;;;;;22.17;46.06;102301.50;5054057;28;20028;-59
2021/06/08 06:11:47;;;;;;;6.15;3.65;;;;;;;22.17;45.83;102304.16;5055167;28;20036;-57
2021/06/08 06:14:14;;;;;;;5.40;3.28;;;;;;;22.14;45.82;102299.09;5054856;28;20025;-56
2021/06/08 06:16:46;;;;;;;5.97;2.92;;;;;;;22.15;45.54;102308.75;5054131;28;20050;-57
2021/06/08 06:19:12;;;;;;;7.55;2.97;;;;;;;22.14;45.55;102307.06;5054780;28;20407;-57
2021/06/08 06:21:38;;;;;;;4.85;3.00;;;;;;;22.16;45.30;102312.25;5054866;28;20028;-58
2021/06/08 06:24:05;;;;;;;6.68;3.72;;;;;;;22.15;45.52;102308.75;5054008;28;20024;-58
2021/06/08 06:26:33;;;;;;;5.18;3.35;;;;;;;22.14;45.53;102301.75;5054741;28;20104;-59
2021/06/08 06:29:00;;;;;;;6.00;3.20;;;;;;;22.16;45.47;102315.78;5054677;28;20380;-58
2021/06/08 06:31:26;;;;;;;5.80;2.67;;;;;;;22.17;45.87;102306.81;5053608;28;20025;-58
2021/06/08 06:33:56;;;;;;;5.18;2.92;;;;;;;22.19;46.02;102314.69;5053626;28;20582;-58
2021/06/08 06:36:23;;;;;;;6.05;2.90;;;;;;;22.21;46.04;102308.28;5054360;28;20574;-57
2021/06/08 06:38:50;;;;;;;7.45;3.22;;;;;;;22.23;46.22;102311.66;5053955;28;20025;-57
2021/06/08 06:41:19;;;;;;;6.93;3.00;;;;;;;22.24;46.29;102313.38;5054233;28;20029;-58
2021/06/08 06:43:50;;;;;;;5.38;2.80;;;;;;;22.25;45.76;102298.28;5054376;28;20045;-59
2021/06/08 06:46:17;;;;;;;6.78;3.03;;;;;;;22.26;45.78;102308.78;5054025;28;20025;-58
2021/06/08 06:48:44;;;;;;;6.13;3.10;;;;;;;22.27;46.49;102313.16;5058754;28;20081;-59
2021/06/08 06:51:10;;;;;;;4.85;2.83;;;;;;;22.28;46.13;102303.34;5057828;28;20017;-58
2021/06/08 06:53:38;;;;;;;5.57;3.05;;;;;;;22.29;46.46;102310.38;5058633;28;20476;-57
2021/06/08 06:56:04;;;;;;;6.25;2.83;;;;;;;22.29;46.42;102310.38;5058566;28;20048;-58
2021/06/08 06:58:32;;;;;;;5.63;2.88;;;;;;;22.31;45.92;102312.94;5058569;28;20465;-57
2021/06/08 07:01:03;;;;;;;4.85;3.08;;;;;;;22.31;45.95;102308.47;5057108;28;20021;-58
2021/06/08 07:03:32;;;;;;;6.28;3.80;;;;;;;22.29;45.69;102315.69;5058317;28;20024;-57
2021/06/08 07:06:02;;;;;;;6.85;3.80;;;;;;;22.26;45.52;102308.78;5056951;28;20048;-59
2021/06/08 07:08:31;;;;;;;6.65;3.88;;;;;;;22.27;45.85;102315.81;5056084;28;20437;-58
2021/06/08 07:10:57;;;;;;;6.05;3.80;;;;;;;22.28;45.90;102311.31;5055478;28;20444;-59
2021/06/08 07:13:23;;;;;;;5.57;3.42;;;;;;;22.30;45.73;102313.91;5055160;28;20055;-60
2021/06/08 07:15:55;;;;;;;6.43;3.13;;;;;;;22.32;45.81;102311.97;5054700;28;20057;-58
2021/06/08 07:18:20;;;;;;;5.10;3.10;;;;;;;22.33;45.55;102313.66;5054828;28;20497;-58
2021/06/08 07:20:46;;;;;;;6.28;3.22;;;;;;;22.33;45.42;102311.84;5053815;28;20104;-56
2021/06/08 07:23:16;;;;;;;4.93;3.53;;;;;;;22.34;45.53;102310.06;5052612;28;20021;-58
2021/06/08 07:25:43;;;;;;;5.68;3.05;;;;;;;22.34;45.50;102312.72;5054449;28;20021;-59
2021/06/08 07:28:10;;;;;;;7.25;3.00;;;;;;;22.31;45.22;102308.47;5052971;28;20021;-60
2021/06/08 07:30:41;;;;;;;5.53;3.50;;;;;;;22.32;45.46;102304.00;5053952;28;20104;-59
2021/06/08 07:33:15;;;;;;;5.18;3.33;;;;;;;22.32;45.51;102304.00;5053601;28;20032;-59
2021/06/08 07:35:54;;;;;;;5.55;2.80;;;;;;;22.32;45.48;102302.19;5053858;28;20032;-57
2021/06/08 07:38:24;;;;;;;5.28;3.10;;;;;;;22.32;45.42;102311.97;5053889;28;20021;-56
2021/06/08 07:41:00;;;;;;;4.85;2.80;;;;;;;22.34;45.33;102313.56;5053229;28;20020;-58
2021/06/08 07:43:35;;;;;;;5.00;3.15;;;;;;;22.35;45.03;102311.72;5053987;28;20085;-58
2021/06/08 07:46:09;;;;;;;4.80;2.72;;;;;;;22.34;45.24;102310.91;5053113;28;20021;-59
2021/06/08 07:48:40;;;;;;;5.72;2.60;;;;;;;22.35;45.63;102309.94;5052857;28;20469;-59
2021/06/08 07:51:08;;;;;;;6.40;2.50;;;;;;;22.39;45.84;102308.72;5054249;28;20032;-61
2021/06/08 07:53:35;;;;;;;4.40;2.33;;;;;;;22.41;45.88;102309.47;5055071;28;20102;-59
2021/06/08 07:56:04;;;;;;;4.47;2.03;;;;;;;22.45;46.00;102312.72;5051877;28;20037;-57
2021/06/08 07:58:29;;;;;;;3.97;2.17;;;;;;;22.46;46.19;102307.31;5053139;28;20393;-58
2021/06/08 08:00:57;;;;;;;6.13;2.42;;;;;;;22.49;45.95;102311.50;5053373;28;20465;-57
2021/06/08 08:03:25;;;;;;;4.03;2.17;;;;;;;22.52;46.28;102313.09;5051971;28;20480;-57
2021/06/08 08:05:51;;;;;;;4.07;1.80;;;;;;;22.53;45.96;102312.97;5052834;28;20485;-58
2021/06/08 08:08:19;;;;;;;3.72;1.83;;;;;;;22.55;46.24;102311.03;5052966;28;20017;-57
2021/06/08 08:10:45;;;;;;;4.68;2.13;;;;;;;22.56;46.29;102310.09;5052405;28;20123;-58
2021/06/08 08:13:12;;;;;;;3.65;1.80;;;;;;;22.53;46.29;102301.53;5052704;28;20021;-58
2021/06/08 08:15:39;;;;;;;5.28;1.88;;;;;;;22.58;46.49;102305.50;5052118;28;20113;-59
2021/06/08 08:18:04;;;;;;;3.45;1.70;;;;;;;22.59;46.53;102301.03;5052429;28;20048;-57
2021/06/08 08:20:55;;;;;;;4.05;1.98;;;;;;;22.61;46.54;102304.41;5052761;28;20057;-57
2021/06/08 08:23:27;;;;;;;3.75;1.90;;;;;;;22.61;46.65;102299.09;5052085;28;20373;-58
2021/06/08 08:26:06;;;;;;;3.63;1.60;;;;;;;22.63;46.78;102300.66;5052590;28;20043;-58
2021/06/08 08:28:34;;;;;;;4.00;2.00;;;;;;;22.64;46.68;102296.22;5052976;28;20029;-58
2021/06/08 08:31:00;;;;;;;3.53;1.92;;;;;;;22.64;46.78;102298.88;5052075;28;20025;-57
2021/06/08 08:33:27;;;;;;;4.90;1.70;;;;;;;22.65;46.74;102297.88;5052276;28;20021;-57
2021/06/08 08:35:53;;;;;;;3.92;1.77;;;;;;;22.66;46.86;102304.06;5052687;28;20102;-57
2021/06/08 08:38:19;;;;;;;3.10;1.60;;;;;;;22.65;46.87;102295.22;5051565;28;20373;-59
2021/06/08 08:40:45;;;;;;;2.95;1.80;;;;;;;22.68;46.88;102299.47;5052017;28;20048;-58
2021/06/08 08:43:11;;;;;;;3.40;1.80;;;;;;;22.69;46.93;102293.19;5052436;28;20524;-58
2021/06/08 08:45:36;;;;;;;3.25;1.75;;;;;;;22.70;47.04;102289.56;5051731;28;20107;-58
2021/06/08 08:48:02;;;;;;;2.65;1.55;;;;;;;22.70;47.10;102287.78;5052027;28;20031;-57
2021/06/08 08:50:28;;;;;;;4.57;1.67;;;;;;;22.69;47.04;102286.06;5052206;28;20064;-57
2021/06/08 08:52:58;;;;;;;3.72;1.95;;;;;;;22.71;47.06;102281.47;5051492;28;20024;-58
2021/06/08 08:55:27;;;;;;;4.45;1.60;;;;;;;22.71;47.04;102281.47;5051937;28;20021;-57
2021/06/08 08:57:55;;;;;;;4.88;1.60;;;;;;;22.72;47.18;102275.19;5050966;28;20492;-57
2021/06/08 09:00:22;;;;;;;3.17;1.73;;;;;;;22.73;47.04;102276.91;5051763;28;20468;-57
2021/06/08 09:02:49;;;;;;;3.85;1.70;;;;;;;22.74;47.25;102275.91;5052093;28;20449;-57
2021/06/08 09:05:14;;;;;;;4.40;1.73;;;;;;;22.75;47.23;102272.31;5050748;28;20049;-58
2021/06/08 09:07:40;;;;;;;2.97;1.52;;;;;;;22.75;47.16;102260.84;5052174;28;20179;-58
2021/06/08 09:10:09;;;;;;;3.08;1.58;;;;;;;22.75;47.37;102272.31;5051871;28;20166;-59
2021/06/08 09:12:36;;;;;;;4.90;1.80;;;;;;;22.75;47.21;102261.66;5051298;28;20106;-58
2021/06/08 09:15:03;;;;;;;3.55;1.50;;;;;;;22.74;47.22;102267.94;5051945;28;20029;-57
2021/06/08 09:17:30;;;;;;;4.18;1.52;;;;;;;22.75;47.17;102266.16;5051731;28;20235;-58
2021/06/08 09:19:55;;;;;;;3.63;1.60;;;;;;;22.75;47.21;102269.66;5051095;28;20423;-58
2021/06/08 09:22:20;;;;;;;3.10;1.60;;;;;;;22.77;46.94;102266.88;5052505;28;20021;-59
2021/06/08 09:24:54;;;;;;;4.05;2.22;;;;;;;22.78;46.23;102260.56;5053143;28;20108;-57
2021/06/08 09:27:27;;;;;;;5.28;1.80;;;;;;;22.81;46.54;102260.31;5051368;28;20033;-59
2021/06/08 09:29:52;;;;;;;3.10;1.60;;;;;;;22.83;46.19;102263.72;5052201;28;20419;-59
2021/06/08 09:32:27;;;;;;;3.80;1.80;;;;;;;22.84;45.16;102265.41;5051548;28;20021;-58
2021/06/08 09:34:57;;;;;;;5.30;2.30;;;;;;;22.86;44.66;102259.97;5051089;28;20320;-59
2021/06/08 09:37:32;;;;;;;3.90;2.00;;;;;;;22.87;44.49;102253.69;5052087;28;20021;-58
2021/06/08 09:40:00;;;;;;;3.72;2.08;;;;;;;22.86;44.32;102262.63;5048921;28;20021;-59
2021/06/08 09:42:30;;;;;;;6.35;2.00;;;;;;;22.88;43.86;102264.19;5051415;28;20017;-59
2021/06/08 09:45:12;;;;;;;4.50;2.05;;;;;;;22.89;44.02;102259.72;5052094;28;20540;-59
2021/06/08 09:47:38;;;;;;;3.40;1.90;;;;;;;22.90;43.80;102262.25;5050614;28;20040;-59
2021/06/08 09:50:25;;;;;;;5.20;1.70;;;;;;;22.92;43.91;102252.38;5051438;28;20033;-59
2021/06/08 09:53:18;;;;;;;4.43;1.80;;;;;;;22.93;43.71;102256.69;5051911;28;20118;-59
2021/06/08 09:55:59;;;;;;;3.33;1.67;;;;;;;22.92;43.26;102257.69;5050707;28;20029;-58
2021/06/08 09:58:27;;;;;;;7.43;2.58;;;;;;;22.90;41.83;102248.97;5051413;28;20033;-58
2021/06/08 10:01:21;;;;;;;4.18;2.20;;;;;;;22.89;42.35;102255.28;5051116;28;20488;-58
2021/06/08 10:03:57;;;;;;;3.65;2.00;;;;;;;22.89;42.11;102249.94;5051375;28;20037;-60
2021/06/08 10:06:37;;;;;;;6.28;1.80;;;;;;;22.89;42.75;102255.28;5050716;28;20041;-58
2021/06/08 10:09:10;;;;;;;3.50;1.63;;;;;;;22.90;42.72;102253.44;5052002;28;20041;-58
2021/06/08 10:11:39;;;;;;;4.45;1.67;;;;;;;22.91;42.95;102249.84;5055565;28;20017;-56
2021/06/08 10:14:23;;;;;;;3.67;1.50;;;;;;;22.93;42.67;102254.03;5054172;28;20543;-58
2021/06/08 10:16:58;;;;;;;;;;;;;;;22.97;42.76;102244.00;5055261;28;20090;-59
2021/06/08 10:19:28;;;;;;;3.63;2.00;;;;;;;22.97;42.85;102244.84;5054941;28;19960;-57
2021/06/08 10:21:54;;;;;;;5.20;1.88;;;;;;;22.98;42.84;102243.88;5055260;28;20457;-58
2021/06/08 10:24:25;;;;;;;4.75;1.70;;;;;;;23.00;43.07;102243.75;5054526;28;20353;-57
2021/06/08 10:26:53;;;;;;;2.90;1.48;;;;;;;23.00;43.42;102233.97;5055364;28;20081;-58
2021/06/08 10:29:30;;;;;;;3.92;1.67;;;;;;;23.01;43.67;102240.13;5054337;28;20025;-59
2021/06/08 10:32:00;;;;;;;2.63;1.30;;;;;;;22.96;43.74;102232.53;5054739;28;20043;-57
2021/06/08 10:34:29;;;;;;;3.03;1.40;;;;;;;22.94;44.09;102237.13;5054490;28;20025;-57
2021/06/08 10:36:55;;;;;;;3.63;1.38;;;;;;;22.92;44.13;102231.09;5053827;28;20025;-56
2021/06/08 10:39:25;;;;;;;4.22;1.42;;;;;;;22.90;44.19;102232.19;5054366;28;20045;-57
2021/06/08 10:41:51;;;;;;;3.75;1.38;;;;;;;22.88;44.07;102242.94;5054936;28;20162;-57
2021/06/08 10:44:22;;;;;;;2.88;1.40;;;;;;;22.86;44.20;102236.91;5053773;28;20025;-58
2021/06/08 10:46:51;;;;;;;3.95;1.38;;;;;;;22.85;44.22;102237.03;5054609;28;20031;-58
2021/06/08 10:49:31;;;;;;;5.82;1.48;;;;;;;22.83;44.34;102243.28;5054076;28;20480;-57
2021/06/08 10:52:10;;;;;;;5.30;1.85;;;;;;;22.81;43.83;102236.41;5053627;28;20092;-57
2021/06/08 10:54:41;;;;;;;3.25;1.60;;;;;;;22.79;43.71;102236.53;5054336;28;20540;-57
2021/06/08 10:57:14;;;;;;;3.20;1.30;;;;;;;22.79;43.79;102230.38;5053472;28;20059;-57
2021/06/08 11:00:00;;;;;;;3.70;1.20;;;;;;;22.78;43.95;102226.88;5036038;28;20526;-57
2021/06/08 11:03:01;;;;;;;3.63;1.50;;;;;;;22.77;43.43;102229.66;5053675;28;20025;-57
2021/06/08 11:05:44;;;;;;;5.15;1.50;;;;;;;22.76;43.09;102230.63;5053191;28;20481;-55
2021/06/08 11:08:13;;;;;;;3.30;1.60;;;;;;;22.75;43.05;102232.44;5053525;28;20503;-56
2021/06/08 11:10:42;;;;;;;4.45;1.52;;;;;;;22.75;43.17;102228.94;5054005;28;20028;-57
2021/06/08 11:13:10;;;;;;;2.17;1.20;;;;;;;22.74;43.45;102230.72;5053031;28;20021;-58
2021/06/08 11:15:38;;;;;;;2.70;1.27;;;;;;;22.74;43.55;102224.59;5053742;28;20060;-57
2021/06/08 11:21:13;;;;;;;2.90;1.33;;;;;;;22.74;43.31;102229.91;5049322;28;20377;-57
2021/06/08 11:23:45;;;;;;;4.47;1.77;;;;;;;22.72;43.59;102224.72;5053787;28;20021;-56
2021/06/08 11:26:13;;;;;;;3.78;1.50;;;;;;;22.73;43.74;102229.06;5052789;28;20055;-58
2021/06/08 11:28:40;;;;;;;3.95;1.50;;;;;;;22.72;43.79;102224.72;5053649;28;20025;-59
2021/06/08 11:31:09;;;;;;;3.13;1.13;;;;;;;22.72;43.84;102222.06;5053231;28;20021;-56
2021/06/08 11:33:41;;;;;;;2.42;1.30;;;;;;;22.73;44.16;102222.88;5052562;28;20025;-58
2021/06/08 11:36:19;;;;;;;3.30;1.33;;;;;;;22.75;44.47;102228.94;5053434;28;20100;-57
2021/06/08 11:38:46;;;;;;;2.92;1.30;;;;;;;22.75;44.74;102220.97;5053477;28;20029;-57